Time;durP1;ratioP1;P1;durP2;ratioP2;P2;SDS_P1;SDS_P2;PMS_P1;PMS_P2;Temp;Humidity;BMP_temperature;BMP_pressure;BME280_temperature;BME280_humidity;BME280_pressure;Samples;Min_cycle;Max_cycle;Signal;HPM_P1;HPM_P2
2023/09/07 00:01:27;;;;;;;5.70;4.47;;;16.50;78.10;;;;;;4995110;28;20121;-60
2023/09/07 00:03:52;;;;;;;6.47;4.90;;;16.40;78.00;;;;;;4994616;28;20089;-63
2023/09/07 00:06:18;;;;;;;6.05;4.50;;;16.40;78.00;;;;;;4994125;28;20030;-62
2023/09/07 00:08:44;;;;;;;4.88;4.35;;;16.40;78.10;;;;;;4994285;28;20034;-65
2023/09/07 00:11:10;;;;;;;6.10;5.07;;;16.30;78.20;;;;;;4991517;28;20049;-62
2023/09/07 00:13:36;;;;;;;7.63;4.63;;;16.30;79.20;;;;;;4992359;28;20033;-62
2023/09/07 00:16:05;;;;;;;4.70;4.22;;;16.20;78.40;;;;;;4996458;28;20053;-64
2023/09/07 00:18:32;;;;;;;5.15;4.65;;;16.20;78.90;;;;;;4992361;28;20045;-63
2023/09/07 00:20:59;;;;;;;7.93;4.57;;;16.10;78.80;;;;;;4996426;28;20034;-62
2023/09/07 00:23:25;;;;;;;5.60;4.07;;;16.10;78.70;;;;;;4991776;28;20050;-64
2023/09/07 00:25:51;;;;;;;4.70;4.25;;;16.20;79.60;;;;;;4993970;28;20041;-63
2023/09/07 00:28:16;;;;;;;6.45;4.43;;;16.10;78.80;;;;;;4989798;28;20721;-61
2023/09/07 00:30:42;;;;;;;4.47;4.07;;;16.20;78.90;;;;;;4993634;28;20058;-63
2023/09/07 00:33:08;;;;;;;4.57;3.60;;;16.20;78.80;;;;;;4996313;28;20050;-61
2023/09/07 00:35:34;;;;;;;6.00;4.22;;;16.10;78.60;;;;;;4994527;28;20049;-63
2023/09/07 00:37:59;;;;;;;4.95;4.50;;;16.10;78.50;;;;;;4994864;28;20031;-62
2023/09/07 00:40:26;;;;;;;4.47;4.07;;;16.20;78.70;;;;;;4996751;28;20396;-62
2023/09/07 00:42:52;;;;;;;4.80;4.40;;;16.20;78.70;;;;;;4996749;28;20443;-62
2023/09/07 00:45:17;;;;;;;4.53;4.13;;;16.10;78.60;;;;;;4995147;28;20069;-61
2023/09/07 00:47:43;;;;;;;5.35;4.60;;;16.10;78.60;;;;;;4995433;28;20056;-63
2023/09/07 00:50:09;;;;;;;5.28;4.35;;;16.10;78.70;;;;;;4994527;28;20097;-63
2023/09/07 00:52:39;;;;;;;4.85;4.43;;;16.00;78.70;;;;;;4993870;28;20082;-64
2023/09/07 00:55:06;;;;;;;6.05;4.45;;;16.00;78.90;;;;;;4994072;28;20042;-63
2023/09/07 00:57:32;;;;;;;7.85;4.30;;;15.90;78.90;;;;;;4995119;28;20030;-63
2023/09/07 00:59:58;;;;;;;4.80;4.28;;;15.90;79.00;;;;;;4993671;28;20046;-63
2023/09/07 01:02:23;;;;;;;4.95;4.55;;;15.90;79.20;;;;;;4996225;28;20038;-62
2023/09/07 01:04:51;;;;;;;4.65;4.25;;;15.80;79.30;;;;;;4993742;28;20129;-62
2023/09/07 01:07:22;;;;;;;5.82;4.22;;;15.80;79.50;;;;;;4996799;28;20437;-63
2023/09/07 01:09:57;;;;;;;5.82;4.47;;;15.80;79.80;;;;;;4993186;28;20041;-61
2023/09/07 01:12:23;;;;;;;5.15;4.65;;;15.70;79.90;;;;;;4991171;28;20026;-62
2023/09/07 01:14:49;;;;;;;5.00;4.53;;;15.70;79.80;;;;;;4994594;28;20520;-63
2023/09/07 01:17:15;;;;;;;4.60;4.20;;;15.60;80.00;;;;;;4991954;28;20038;-63
2023/09/07 01:19:41;;;;;;;5.35;4.57;;;15.60;80.20;;;;;;4991224;28;20050;-63
2023/09/07 01:22:08;;;;;;;6.20;4.20;;;15.70;80.30;;;;;;4993729;28;20059;-64
2023/09/07 01:24:37;;;;;;;6.05;4.35;;;15.70;80.50;;;;;;4994105;28;20027;-63
2023/09/07 01:27:04;;;;;;;4.65;4.25;;;15.70;80.30;;;;;;4993476;28;20096;-65
2023/09/07 01:29:30;;;;;;;6.10;4.70;;;15.70;80.20;;;;;;4990245;28;20069;-64
2023/09/07 01:31:57;;;;;;;5.47;4.63;;;15.80;80.10;;;;;;4992372;28;20081;-62
2023/09/07 01:34:23;;;;;;;5.68;4.97;;;15.70;80.10;;;;;;4991305;28;20038;-64
2023/09/07 01:36:49;;;;;;;5.78;5.03;;;15.70;80.10;;;;;;4993521;28;20037;-62
2023/09/07 01:39:16;;;;;;;5.47;4.95;;;15.70;80.30;;;;;;4994032;28;20038;-62
2023/09/07 01:41:42;;;;;;;5.63;5.13;;;15.70;81.20;;;;;;4992186;28;20136;-62
2023/09/07 01:44:08;;;;;;;5.32;4.85;;;15.70;80.60;;;;;;4994230;28;20976;-62
2023/09/07 01:46:35;;;;;;;5.18;4.68;;;15.70;80.60;;;;;;4993301;28;20030;-63
2023/09/07 01:49:01;;;;;;;4.63;4.32;;;15.70;80.60;;;;;;4992432;28;20057;-62
2023/09/07 01:51:27;;;;;;;4.72;4.25;;;15.60;80.40;;;;;;4993722;28;20176;-64
2023/09/07 01:53:53;;;;;;;4.57;4.18;;;15.60;80.30;;;;;;4993307;28;20050;-63
2023/09/07 01:56:19;;;;;;;5.05;4.55;;;15.60;81.00;;;;;;4994093;28;20405;-63
2023/09/07 01:58:45;;;;;;;4.93;4.53;;;15.50;80.10;;;;;;4991493;28;20038;-63
2023/09/07 02:01:29;;;;;;;6.45;4.53;;;15.50;80.30;;;;;;4995209;28;20037;-63
2023/09/07 02:03:55;;;;;;;5.35;4.85;;;15.40;81.30;;;;;;4993043;28;20042;-62
2023/09/07 02:06:21;;;;;;;5.18;4.70;;;15.40;80.50;;;;;;4993254;28;20034;-63
2023/09/07 02:08:46;;;;;;;5.35;4.82;;;15.30;80.70;;;;;;4994599;28;20030;-62
2023/09/07 02:11:12;;;;;;;4.75;4.35;;;15.30;81.00;;;;;;4995309;28;20057;-62
2023/09/07 02:13:41;;;;;;;5.50;4.47;;;15.20;81.20;;;;;;4990558;28;20105;-63
2023/09/07 02:16:07;;;;;;;4.90;4.28;;;15.20;81.20;;;;;;4995294;28;20583;-63
2023/09/07 02:18:35;;;;;;;5.90;4.88;;;15.20;81.20;;;;;;4991300;28;20042;-62
2023/09/07 02:21:02;;;;;;;5.10;4.60;;;15.20;81.20;;;;;;4993285;28;20038;-62
2023/09/07 02:23:28;;;;;;;5.00;4.60;;;15.20;81.20;;;;;;4992212;28;20482;-61
2023/09/07 02:25:54;;;;;;;5.55;4.60;;;15.10;81.30;;;;;;4995131;28;20030;-62
2023/09/07 02:28:20;;;;;;;5.10;4.60;;;15.10;81.60;;;;;;4994516;28;20080;-61
2023/09/07 02:30:45;;;;;;;5.38;4.88;;;15.00;81.80;;;;;;4993264;28;20045;-62
2023/09/07 02:33:11;;;;;;;7.43;4.80;;;15.00;81.90;;;;;;4989972;28;20484;-63
2023/09/07 02:35:39;;;;;;;5.25;4.45;;;15.00;81.90;;;;;;4991428;28;20068;-62
2023/09/07 02:38:05;;;;;;;4.95;4.30;;;15.00;82.00;;;;;;4994682;28;20041;-63
2023/09/07 02:40:30;;;;;;;4.68;4.18;;;15.00;81.80;;;;;;4993393;28;20039;-62
2023/09/07 02:42:56;;;;;;;5.53;4.60;;;15.10;81.90;;;;;;4992185;28;20050;-63
2023/09/07 02:45:21;;;;;;;4.75;4.35;;;15.10;81.80;;;;;;4992314;28;20472;-61
2023/09/07 02:47:50;;;;;;;4.82;4.40;;;15.10;81.60;;;;;;4994755;28;20034;-62
2023/09/07 02:50:17;;;;;;;4.90;4.50;;;15.10;81.50;;;;;;4992986;28;20501;-63
2023/09/07 02:52:42;;;;;;;5.38;4.88;;;15.10;81.40;;;;;;4993334;28;20038;-62
2023/09/07 02:55:08;;;;;;;5.97;5.38;;;15.10;81.30;;;;;;4992636;28;20033;-62
2023/09/07 02:57:35;;;;;;;6.57;5.97;;;15.00;81.20;;;;;;4993195;28;20038;-62
2023/09/07 03:00:00;;;;;;;6.63;5.65;;;15.00;81.30;;;;;;4990330;28;20038;-63
2023/09/07 03:02:27;;;;;;;7.35;5.80;;;14.90;81.30;;;;;;4997524;28;20497;-63
2023/09/07 03:04:58;;;;;;;8.50;5.78;;;14.90;81.50;;;;;;4996833;28;20041;-63
2023/09/07 03:07:24;;;;;;;5.55;4.93;;;14.90;81.90;;;;;;4997801;28;20041;-63
2023/09/07 03:09:52;;;;;;;7.72;5.60;;;14.80;82.00;;;;;;4996881;28;20042;-61
2023/09/07 03:12:18;;;;;;;7.15;5.40;;;14.80;82.40;;;;;;4995942;28;20054;-62
2023/09/07 03:14:44;;;;;;;7.38;6.03;;;14.80;82.40;;;;;;4994509;28;20124;-63
2023/09/07 03:17:09;;;;;;;6.47;5.85;;;14.70;83.30;;;;;;4995958;28;20714;-63
2023/09/07 03:19:36;;;;;;;6.25;5.65;;;14.70;82.70;;;;;;4999309;28;20034;-60
2023/09/07 03:22:03;;;;;;;7.60;5.75;;;14.60;82.90;;;;;;4996486;28;20065;-62
2023/09/07 03:24:29;;;;;;;7.13;5.80;;;14.70;82.90;;;;;;4996094;28;20057;-64
2023/09/07 03:26:54;;;;;;;6.38;5.78;;;14.60;83.00;;;;;;4994924;28;20540;-61
2023/09/07 03:29:20;;;;;;;5.95;5.45;;;14.70;83.10;;;;;;4995351;28;20065;-63
2023/09/07 03:31:45;;;;;;;6.43;5.82;;;14.60;83.10;;;;;;4996883;28;20124;-62
2023/09/07 03:34:11;;;;;;;6.22;5.63;;;14.70;83.30;;;;;;4996373;28;20398;-61
2023/09/07 03:36:36;;;;;;;6.28;5.68;;;14.70;83.30;;;;;;4996063;28;20041;-63
2023/09/07 03:39:02;;;;;;;7.55;5.78;;;14.70;83.40;;;;;;4995468;28;20041;-63
2023/09/07 03:41:30;;;;;;;5.97;5.47;;;14.70;83.40;;;;;;4996461;28;20042;-62
2023/09/07 03:43:56;;;;;;;8.30;5.85;;;14.70;83.30;;;;;;4993352;28;20615;-63
2023/09/07 03:46:22;;;;;;;7.15;6.32;;;14.70;83.30;;;;;;4996297;28;20105;-62
2023/09/07 03:48:47;;;;;;;6.95;5.60;;;14.70;83.30;;;;;;4994829;28;20112;-62
2023/09/07 03:51:13;;;;;;;6.03;5.40;;;14.70;83.30;;;;;;4997276;28;20050;-61
2023/09/07 03:53:39;;;;;;;6.07;5.45;;;14.80;83.30;;;;;;4997253;28;20521;-60
2023/09/07 03:56:04;;;;;;;9.25;5.90;;;14.80;83.00;;;;;;4993360;28;20034;-62
2023/09/07 03:58:30;;;;;;;6.15;5.35;;;14.80;82.80;;;;;;4993204;28;20034;-61
2023/09/07 04:00:59;;;;;;;7.47;5.50;;;14.90;82.70;;;;;;4993812;28;20272;-63
2023/09/07 04:03:25;;;;;;;6.13;5.53;;;14.80;82.70;;;;;;4995632;28;20109;-62
2023/09/07 04:05:51;;;;;;;5.82;5.30;;;14.90;82.70;;;;;;4991632;28;21724;-62
2023/09/07 04:08:16;;;;;;;6.32;5.47;;;14.80;82.70;;;;;;4994849;28;20042;-63
2023/09/07 04:10:42;;;;;;;6.28;5.68;;;14.80;82.90;;;;;;4995297;28;20057;-62
2023/09/07 04:13:07;;;;;;;6.70;5.63;;;14.80;83.30;;;;;;4996768;28;20030;-62
2023/09/07 04:15:44;;;;;;;7.72;5.93;;;14.80;83.50;;;;;;4995783;28;20172;-63
2023/09/07 04:18:15;;;;;;;6.03;5.43;;;14.80;84.10;;;;;;4997036;28;20450;-62
2023/09/07 04:20:40;;;;;;;7.47;5.90;;;14.90;83.80;;;;;;4992008;28;20042;-62
2023/09/07 04:23:06;;;;;;;6.57;5.90;;;14.90;83.90;;;;;;4993926;28;20038;-62
2023/09/07 04:25:35;;;;;;;7.22;6.10;;;14.90;83.90;;;;;;4995315;28;20048;-61
2023/09/07 04:28:00;;;;;;;7.10;6.35;;;15.00;83.80;;;;;;4996773;28;20097;-62
2023/09/07 04:30:26;;;;;;;6.63;5.88;;;15.00;83.70;;;;;;4985838;28;20418;-61
2023/09/07 04:32:52;;;;;;;6.68;6.05;;;15.00;83.60;;;;;;4988798;28;20114;-62
2023/09/07 04:35:18;;;;;;;6.50;5.78;;;15.00;83.60;;;;;;4987638;28;20520;-63
2023/09/07 04:37:44;;;;;;;6.25;5.65;;;15.00;83.50;;;;;;4991223;28;20045;-62
2023/09/07 04:40:10;;;;;;;6.03;5.30;;;15.00;83.30;;;;;;4991990;28;20128;-63
2023/09/07 04:42:38;;;;;;;6.90;5.40;;;15.00;83.20;;;;;;4994187;28;20052;-62
2023/09/07 04:45:05;;;;;;;5.47;4.97;;;14.90;83.10;;;;;;4993488;28;20088;-65
2023/09/07 04:47:30;;;;;;;5.63;5.13;;;14.90;82.90;;;;;;4995902;28;20030;-61
2023/09/07 04:49:56;;;;;;;5.40;4.90;;;14.90;82.90;;;;;;4994047;28;20344;-63
2023/09/07 04:52:22;;;;;;;6.25;5.40;;;14.90;82.80;;;;;;4994876;28;20033;-63
2023/09/07 04:54:47;;;;;;;7.85;5.57;;;14.90;82.80;;;;;;4995343;28;20053;-62
2023/09/07 04:57:18;;;;;;;6.57;5.80;;;14.90;82.70;;;;;;4992912;28;20030;-63
2023/09/07 04:59:43;;;;;;;7.13;5.55;;;14.90;82.80;;;;;;4994020;28;20030;-62
2023/09/07 05:02:09;;;;;;;6.28;5.68;;;14.80;82.60;;;;;;4995199;28;20045;-61
2023/09/07 05:04:34;;;;;;;6.80;6.10;;;14.80;82.70;;;;;;4992752;28;20041;-64
2023/09/07 05:07:00;;;;;;;6.28;5.68;;;14.80;82.70;;;;;;4995452;28;20030;-66
2023/09/07 05:09:28;;;;;;;7.38;6.07;;;14.70;82.70;;;;;;4995239;28;20033;-66
2023/09/07 05:11:54;;;;;;;8.23;6.40;;;14.70;82.90;;;;;;4989489;28;20132;-61
2023/09/07 05:14:20;;;;;;;8.15;5.70;;;14.70;82.90;;;;;;4994603;28;20152;-64
2023/09/07 05:16:45;;;;;;;8.30;5.78;;;14.70;83.00;;;;;;4992917;28;20045;-61
2023/09/07 05:19:11;;;;;;;8.23;5.60;;;14.60;83.10;;;;;;4993320;28;20096;-63
2023/09/07 05:21:36;;;;;;;8.07;5.80;;;14.60;83.30;;;;;;4993787;28;20096;-60
2023/09/07 05:24:02;;;;;;;7.28;5.57;;;14.50;83.40;;;;;;4994876;28;20112;-61
2023/09/07 05:26:28;;;;;;;9.25;5.65;;;14.60;83.60;;;;;;4994145;28;20033;-62
2023/09/07 05:28:53;;;;;;;12.35;5.88;;;14.50;83.60;;;;;;4994552;28;20405;-62
2023/09/07 05:31:19;;;;;;;7.07;5.38;;;14.50;83.70;;;;;;4992408;28;20149;-61
2023/09/07 05:33:45;;;;;;;9.55;5.78;;;14.50;83.80;;;;;;4992893;28;20121;-64
2023/09/07 05:36:10;;;;;;;9.13;5.43;;;14.50;84.00;;;;;;4996179;28;20034;-62
2023/09/07 05:38:36;;;;;;;12.80;5.97;;;14.50;84.20;;;;;;4993138;28;20095;-64
2023/09/07 05:41:02;;;;;;;9.77;5.47;;;14.50;84.30;;;;;;4995279;28;20763;-64
2023/09/07 05:43:27;;;;;;;11.07;5.93;;;14.50;84.40;;;;;;4994546;28;20038;-64
2023/09/07 05:45:53;;;;;;;12.20;6.38;;;14.50;84.50;;;;;;4994788;28;20038;-63
2023/09/07 05:48:18;;;;;;;10.13;5.63;;;14.50;84.80;;;;;;4992669;28;20345;-63
2023/09/07 05:50:45;;;;;;;6.20;5.38;;;14.50;85.00;;;;;;4993385;28;20479;-62
2023/09/07 05:53:11;;;;;;;10.45;5.97;;;14.60;85.20;;;;;;4995047;28;20624;-63
2023/09/07 05:55:36;;;;;;;8.75;6.40;;;14.60;85.20;;;;;;4993384;28;20042;-62
2023/09/07 05:58:06;;;;;;;8.63;6.45;;;14.70;85.20;;;;;;4993666;28;20041;-62
2023/09/07 06:00:31;;;;;;;9.77;6.80;;;14.70;85.70;;;;;;4994723;28;20154;-62
2023/09/07 06:02:57;;;;;;;9.13;6.93;;;14.70;85.70;;;;;;4995497;28;20038;-62
2023/09/07 06:05:23;;;;;;;10.95;6.80;;;14.80;86.00;;;;;;4994684;28;20030;-62
2023/09/07 06:07:48;;;;;;;10.95;7.50;;;14.80;86.40;;;;;;4995563;28;20452;-62
2023/09/07 06:10:14;;;;;;;7.93;7.05;;;14.90;86.60;;;;;;4992573;28;20299;-63
2023/09/07 06:12:40;;;;;;;7.75;7.05;;;14.90;86.90;;;;;;4993518;28;20065;-63
2023/09/07 06:15:07;;;;;;;14.13;7.40;;;14.90;87.10;;;;;;4993325;28;20042;-62
2023/09/07 06:17:32;;;;;;;8.52;7.63;;;15.00;87.30;;;;;;4994581;28;20394;-62
2023/09/07 06:19:58;;;;;;;7.90;7.10;;;15.10;87.40;;;;;;4995238;28;20047;-66
2023/09/07 06:22:24;;;;;;;9.13;8.20;;;15.20;87.40;;;;;;4995938;28;20107;-62
2023/09/07 06:24:49;;;;;;;9.38;8.32;;;15.20;87.50;;;;;;4996103;28;20053;-62
2023/09/07 06:27:15;;;;;;;9.05;7.65;;;15.30;88.10;;;;;;4995731;28;20046;-62
2023/09/07 06:29:40;;;;;;;9.20;8.30;;;15.40;88.30;;;;;;4995156;28;20132;-62
2023/09/07 06:32:06;;;;;;;8.70;7.80;;;15.50;88.60;;;;;;4993248;28;20034;-63
2023/09/07 06:34:32;;;;;;;9.95;7.78;;;15.60;88.60;;;;;;4993058;28;20045;-64
2023/09/07 06:36:58;;;;;;;9.55;8.55;;;15.70;88.50;;;;;;4998629;28;20030;-62
2023/09/07 06:39:23;;;;;;;8.07;7.38;;;15.80;88.60;;;;;;4999567;28;20041;-62
2023/09/07 06:41:49;;;;;;;9.02;7.65;;;15.90;88.60;;;;;;5001262;28;20453;-61
2023/09/07 06:44:14;;;;;;;10.88;7.95;;;16.00;88.40;;;;;;4999532;28;20042;-64
2023/09/07 06:46:40;;;;;;;8.50;7.70;;;16.10;88.30;;;;;;4999397;28;20069;-63
2023/09/07 06:49:06;;;;;;;8.52;7.57;;;16.20;88.30;;;;;;4997785;28;20501;-61
2023/09/07 06:51:32;;;;;;;9.20;8.07;;;16.20;88.10;;;;;;4998712;28;20046;-64
2023/09/07 06:53:58;;;;;;;8.68;7.63;;;16.30;88.10;;;;;;4997829;28;20080;-62
2023/09/07 06:56:24;;;;;;;9.10;8.02;;;16.40;88.00;;;;;;4995590;28;20038;-63
2023/09/07 06:58:49;;;;;;;10.35;8.98;;;16.50;88.30;;;;;;4996740;28;20042;-62
2023/09/07 07:01:15;;;;;;;9.55;8.57;;;16.60;87.90;;;;;;5001025;28;20037;-62
2023/09/07 07:03:41;;;;;;;8.30;7.47;;;16.60;87.60;;;;;;4996824;28;20413;-62
2023/09/07 07:06:07;;;;;;;11.02;8.30;;;16.70;87.60;;;;;;4994835;28;20137;-62
2023/09/07 07:08:32;;;;;;;9.18;8.30;;;16.80;87.40;;;;;;4993864;28;20030;-60
2023/09/07 07:10:58;;;;;;;9.35;8.00;;;16.80;87.60;;;;;;4995037;28;20049;-62
2023/09/07 07:13:23;;;;;;;8.75;7.70;;;16.90;87.60;;;;;;4998361;28;20038;-62
2023/09/07 07:15:49;;;;;;;8.90;8.02;;;16.90;87.40;;;;;;4996023;28;20271;-62
2023/09/07 07:18:17;;;;;;;7.63;6.93;;;17.00;87.40;;;;;;5001645;28;20294;-63
2023/09/07 07:20:43;;;;;;;9.63;8.63;;;17.10;87.30;;;;;;4998599;28;20054;-63
2023/09/07 07:23:09;;;;;;;11.00;8.52;;;17.20;87.40;;;;;;4998939;28;20048;-61
2023/09/07 07:25:36;;;;;;;10.05;9.10;;;17.20;87.50;;;;;;4998208;28;20044;-61
2023/09/07 07:28:05;;;;;;;9.95;8.93;;;17.30;87.60;;;;;;5000972;28;20088;-62
2023/09/07 07:30:32;;;;;;;8.68;7.78;;;17.30;87.20;;;;;;4997606;28;20076;-66
2023/09/07 07:32:57;;;;;;;9.02;8.10;;;17.40;87.10;;;;;;4996843;28;20345;-66
2023/09/07 07:35:23;;;;;;;11.90;8.13;;;17.50;87.10;;;;;;4998845;28;20030;-63
2023/09/07 07:37:51;;;;;;;12.32;8.80;;;17.60;87.10;;;;;;4998812;28;20520;-62
2023/09/07 07:40:18;;;;;;;8.93;7.97;;;17.70;86.90;;;;;;4998420;28;20411;-62
2023/09/07 07:42:46;;;;;;;8.85;7.95;;;17.70;86.60;;;;;;4997962;28;20580;-60
2023/09/07 07:45:12;;;;;;;8.80;7.90;;;17.90;86.60;;;;;;4997867;28;20061;-61
2023/09/07 07:47:38;;;;;;;10.13;8.70;;;17.90;86.30;;;;;;4998229;28;20128;-61
2023/09/07 07:50:04;;;;;;;9.15;7.63;;;18.00;86.20;;;;;;4997192;28;20042;-62
2023/09/07 07:52:30;;;;;;;10.43;8.45;;;18.10;85.80;;;;;;4997681;28;20541;-61
2023/09/07 07:54:55;;;;;;;8.82;7.93;;;18.20;85.50;;;;;;4998902;28;20026;-62
2023/09/07 07:57:21;;;;;;;9.93;7.70;;;18.20;85.30;;;;;;4996879;28;20045;-63
2023/09/07 07:59:46;;;;;;;9.40;7.93;;;18.30;85.20;;;;;;4997330;28;20044;-63
2023/09/07 08:02:12;;;;;;;9.45;7.75;;;18.50;85.30;;;;;;4992671;28;20053;-62
2023/09/07 08:04:38;;;;;;;9.82;7.95;;;18.50;85.20;;;;;;4995775;28;20061;-61
2023/09/07 08:07:03;;;;;;;10.13;8.00;;;18.60;85.00;;;;;;4997347;28;20030;-63
2023/09/07 08:09:32;;;;;;;12.80;7.97;;;18.60;84.80;;;;;;4996940;28;20076;-62
2023/09/07 08:11:58;;;;;;;8.38;7.57;;;18.70;84.80;;;;;;4994264;28;20045;-62
2023/09/07 08:14:25;;;;;;;10.35;7.70;;;18.80;84.60;;;;;;4993882;28;20034;-63
2023/09/07 08:16:51;;;;;;;8.07;7.28;;;18.90;84.60;;;;;;4995634;28;20042;-62
2023/09/07 08:19:17;;;;;;;8.88;7.78;;;19.00;84.50;;;;;;4996980;28;20127;-60
2023/09/07 08:21:44;;;;;;;9.70;8.35;;;19.10;84.50;;;;;;4997170;28;20341;-64
2023/09/07 08:24:09;;;;;;;9.73;8.10;;;19.20;84.50;;;;;;4996012;28;20072;-62
2023/09/07 08:26:38;;;;;;;9.65;8.55;;;19.30;84.00;;;;;;4995069;28;20042;-62
2023/09/07 08:29:05;;;;;;;8.90;8.02;;;19.40;83.80;;;;;;4999534;28;20038;-61
2023/09/07 08:31:35;;;;;;;10.35;8.40;;;19.40;83.70;;;;;;4996974;28;20534;-61
2023/09/07 08:34:03;;;;;;;9.32;7.82;;;19.50;83.60;;;;;;4995322;28;20137;-61
2023/09/07 08:36:32;;;;;;;8.68;7.88;;;19.60;83.40;;;;;;4993345;28;20046;-63
2023/09/07 08:39:00;;;;;;;8.30;7.50;;;19.70;84.00;;;;;;4996962;28;20038;-62
2023/09/07 08:41:26;;;;;;;10.40;8.07;;;19.80;84.00;;;;;;4995953;28;20081;-64
2023/09/07 08:43:54;;;;;;;9.00;7.68;;;19.90;83.00;;;;;;4995369;28;20378;-62
2023/09/07 08:46:21;;;;;;;9.60;8.70;;;20.00;83.50;;;;;;4995907;28;20045;-60
2023/09/07 08:48:49;;;;;;;8.93;8.02;;;20.10;82.10;;;;;;4996964;28;20441;-63
2023/09/07 08:51:18;;;;;;;8.98;7.85;;;20.20;82.60;;;;;;4996348;28;20069;-64
2023/09/07 08:53:45;;;;;;;10.15;8.65;;;20.30;81.80;;;;;;4992285;28;20072;-63
2023/09/07 08:56:16;;;;;;;9.48;8.48;;;20.30;81.60;;;;;;4995156;28;20048;-62
2023/09/07 08:58:41;;;;;;;9.20;8.15;;;20.40;81.40;;;;;;4994004;28;20038;-60
2023/09/07 09:01:08;;;;;;;9.43;8.52;;;20.50;81.20;;;;;;4995208;28;20089;-63
2023/09/07 09:03:36;;;;;;;8.90;8.00;;;20.50;80.90;;;;;;4995207;28;20084;-62
2023/09/07 09:06:04;;;;;;;8.15;7.43;;;20.60;80.80;;;;;;4994473;28;20034;-62
2023/09/07 09:08:40;;;;;;;9.57;7.85;;;20.70;80.80;;;;;;4995068;28;20634;-62
2023/09/07 09:11:07;;;;;;;9.52;8.63;;;20.80;80.80;;;;;;4995943;28;20045;-61
2023/09/07 09:13:33;;;;;;;8.43;7.63;;;20.80;80.50;;;;;;4994064;28;20037;-65
2023/09/07 09:16:01;;;;;;;8.73;7.68;;;20.90;80.30;;;;;;4994580;28;20369;-63
2023/09/07 09:18:28;;;;;;;8.25;7.22;;;21.00;80.10;;;;;;4992737;28;20460;-63
2023/09/07 09:20:55;;;;;;;11.48;7.85;;;21.10;80.30;;;;;;4993464;28;20037;-63
2023/09/07 09:23:23;;;;;;;8.43;7.65;;;21.20;80.20;;;;;;4995543;28;20042;-63
2023/09/07 09:25:49;;;;;;;8.38;7.50;;;21.30;79.90;;;;;;4992458;28;20038;-63
2023/09/07 09:28:17;;;;;;;8.25;7.18;;;21.40;79.60;;;;;;4996367;28;20038;-63
2023/09/07 09:30:43;;;;;;;7.25;6.50;;;21.40;79.40;;;;;;5008485;28;20413;-67
2023/09/07 09:33:13;;;;;;;9.07;7.30;;;21.60;79.50;;;;;;4995435;28;20038;-62
2023/09/07 09:35:38;;;;;;;10.32;7.70;;;21.70;79.10;;;;;;4995833;28;20520;-63
2023/09/07 09:38:04;;;;;;;7.93;6.85;;;21.80;79.10;;;;;;4996130;28;20030;-63
2023/09/07 09:40:34;;;;;;;8.60;7.68;;;21.80;80.00;;;;;;4995427;28;20033;-63
2023/09/07 09:43:02;;;;;;;8.38;7.53;;;21.90;78.70;;;;;;4993774;28;20580;-65
2023/09/07 09:45:28;;;;;;;9.95;7.78;;;22.00;78.70;;;;;;4994377;28;20042;-64
2023/09/07 09:48:01;;;;;;;9.23;7.90;;;22.20;78.40;;;;;;4995997;28;20034;-62
2023/09/07 09:50:28;;;;;;;8.90;8.00;;;22.20;78.10;;;;;;4995532;28;20038;-62
2023/09/07 09:52:54;;;;;;;11.00;8.30;;;22.40;77.20;;;;;;4995600;28;20041;-63
2023/09/07 09:55:19;;;;;;;8.77;7.88;;;22.40;76.80;;;;;;4995573;28;20038;-63
2023/09/07 09:57:45;;;;;;;9.07;7.75;;;22.50;76.70;;;;;;4994566;28;20681;-63
2023/09/07 10:00:28;;;;;;;8.85;7.60;;;22.60;76.50;;;;;;4993409;28;20504;-64
2023/09/07 10:03:27;;;;;;;8.60;7.78;;;22.60;76.30;;;;;;4995482;28;20030;-64
2023/09/07 10:05:53;;;;;;;11.50;8.60;;;22.70;75.90;;;;;;4994212;28;20042;-62
2023/09/07 10:08:22;;;;;;;8.55;7.45;;;22.80;75.60;;;;;;4996155;28;20061;-63
2023/09/07 10:10:49;;;;;;;8.00;7.25;;;22.80;75.70;;;;;;4992076;28;20160;-62
2023/09/07 10:13:15;;;;;;;9.10;8.20;;;22.90;76.10;;;;;;4995656;28;20161;-63
2023/09/07 10:15:41;;;;;;;8.05;6.93;;;23.00;75.40;;;;;;4994559;28;20049;-63
2023/09/07 10:18:12;;;;;;;7.32;6.63;;;23.00;75.80;;;;;;4996122;28;20034;-63
2023/09/07 10:20:49;;;;;;;8.95;7.53;;;23.10;75.60;;;;;;4996105;28;20607;-63
2023/09/07 10:23:14;;;;;;;10.35;7.65;;;23.20;74.80;;;;;;4995547;28;20481;-63
2023/09/07 10:25:40;;;;;;;8.32;7.32;;;23.30;75.00;;;;;;4996970;28;20039;-63
2023/09/07 10:28:16;;;;;;;7.57;6.72;;;23.40;74.40;;;;;;4996496;28;20065;-63
2023/09/07 10:30:42;;;;;;;10.15;7.25;;;23.50;74.90;;;;;;4994210;28;20409;-63
2023/09/07 10:33:18;;;;;;;7.65;6.55;;;23.50;74.70;;;;;;4994318;28;20030;-65
2023/09/07 10:35:44;;;;;;;10.18;7.35;;;23.60;74.60;;;;;;4995111;28;20038;-63
2023/09/07 10:38:13;;;;;;;7.93;7.13;;;23.70;74.40;;;;;;4992981;28;20037;-66
2023/09/07 10:40:39;;;;;;;8.18;7.40;;;23.80;73.90;;;;;;4995988;28;20084;-64
2023/09/07 10:43:05;;;;;;;8.77;6.80;;;23.80;73.50;;;;;;4995219;28;20038;-64
2023/09/07 10:45:30;;;;;;;7.28;6.57;;;23.90;73.70;;;;;;4993378;28;20072;-64
2023/09/07 10:47:56;;;;;;;8.13;7.32;;;24.00;73.40;;;;;;4996218;28;20034;-64
2023/09/07 10:50:22;;;;;;;9.32;7.25;;;24.10;73.50;;;;;;4993640;28;20436;-66
2023/09/07 10:52:48;;;;;;;8.93;8.00;;;24.10;73.10;;;;;;4994559;28;20026;-63
2023/09/07 10:55:14;;;;;;;8.10;7.30;;;24.20;72.30;;;;;;4993996;28;20038;-66
2023/09/07 10:57:47;;;;;;;9.32;7.63;;;24.20;72.10;;;;;;4993344;28;20049;-63
2023/09/07 11:00:14;;;;;;;8.52;7.00;;;24.30;72.00;;;;;;4993432;28;20045;-64
2023/09/07 11:02:41;;;;;;;8.35;6.25;;;24.30;72.00;;;;;;4992030;28;20041;-64
2023/09/07 11:05:08;;;;;;;7.47;6.78;;;24.40;72.00;;;;;;4990085;28;20580;-65
2023/09/07 11:07:34;;;;;;;7.60;6.85;;;24.40;72.00;;;;;;4995816;28;20041;-63
2023/09/07 11:10:00;;;;;;;7.75;6.80;;;24.40;71.40;;;;;;4991956;28;20117;-64
2023/09/07 11:12:26;;;;;;;7.72;6.65;;;24.50;71.40;;;;;;4993701;28;20043;-64
2023/09/07 11:14:53;;;;;;;7.68;6.95;;;24.60;71.10;;;;;;4994061;28;20048;-63
2023/09/07 11:17:18;;;;;;;7.95;7.15;;;24.70;71.10;;;;;;4993271;28;20458;-62
2023/09/07 11:19:44;;;;;;;9.13;6.60;;;24.70;70.40;;;;;;4991659;28;20237;-62
2023/09/07 11:22:10;;;;;;;6.78;6.10;;;24.80;70.60;;;;;;4994476;28;20030;-64
2023/09/07 11:24:37;;;;;;;8.50;6.65;;;24.80;70.60;;;;;;4996987;28;20648;-63
2023/09/07 11:27:03;;;;;;;14.02;6.20;;;24.90;70.70;;;;;;4998924;28;20112;-65
2023/09/07 11:29:31;;;;;;;12.80;7.00;;;25.00;70.50;;;;;;4996879;28;20077;-62
2023/09/07 11:32:10;;;;;;;9.82;6.53;;;25.00;69.60;;;;;;4999390;28;20045;-64
2023/09/07 11:34:49;;;;;;;6.78;6.18;;;25.10;69.70;;;;;;4996431;28;20050;-64
2023/09/07 11:37:14;;;;;;;5.80;5.30;;;25.10;68.80;;;;;;4996690;28;20501;-62
2023/09/07 11:39:40;;;;;;;5.78;4.82;;;25.20;69.80;;;;;;4997658;28;20347;-62
2023/09/07 11:42:05;;;;;;;6.70;5.43;;;25.20;70.10;;;;;;4998154;28;20049;-62
2023/09/07 11:44:31;;;;;;;7.57;6.45;;;25.30;69.70;;;;;;4993772;28;20042;-62
2023/09/07 11:46:57;;;;;;;6.28;5.60;;;25.40;69.30;;;;;;4996594;28;20041;-65
2023/09/07 11:49:23;;;;;;;10.10;5.90;;;25.50;69.20;;;;;;4998235;28;20081;-64
2023/09/07 11:51:49;;;;;;;6.80;5.45;;;25.50;69.10;;;;;;4995871;28;20339;-62
2023/09/07 11:54:14;;;;;;;6.70;6.20;;;25.60;69.30;;;;;;4994091;28;20134;-63
2023/09/07 11:56:42;;;;;;;7.10;4.80;;;25.60;68.60;;;;;;4996043;28;20146;-63
2023/09/07 11:59:09;;;;;;;5.85;5.35;;;25.70;68.90;;;;;;4997295;28;20030;-64
2023/09/07 12:01:35;;;;;;;5.82;5.30;;;25.70;68.60;;;;;;4998240;28;20054;-64
2023/09/07 12:04:00;;;;;;;6.85;5.63;;;25.80;68.30;;;;;;4999201;28;20161;-62
2023/09/07 12:06:26;;;;;;;5.53;5.03;;;25.80;67.40;;;;;;4998939;28;20038;-63
2023/09/07 12:09:18;;;;;;;5.63;5.13;;;25.90;67.90;;;;;;4998538;28;20034;-62
2023/09/07 12:11:44;;;;;;;8.65;5.20;;;25.90;66.60;;;;;;4993268;28;20623;-66
2023/09/07 12:14:09;;;;;;;5.05;4.55;;;25.90;67.70;;;;;;4996330;28;20680;-63
2023/09/07 12:16:35;;;;;;;4.90;4.32;;;26.00;67.80;;;;;;4999059;28;20041;-62
2023/09/07 12:19:00;;;;;;;7.90;4.50;;;26.10;67.80;;;;;;4997695;28;20026;-62
2023/09/07 12:21:26;;;;;;;6.18;4.28;;;26.10;67.60;;;;;;4998755;28;20093;-65
2023/09/07 12:23:51;;;;;;;5.47;4.90;;;26.20;67.80;;;;;;4995438;28;21173;-63
2023/09/07 12:26:19;;;;;;;7.88;4.57;;;26.20;67.60;;;;;;4997082;28;20045;-63
2023/09/07 12:28:44;;;;;;;4.80;4.40;;;26.20;67.20;;;;;;4994886;28;20156;-64
2023/09/07 12:31:11;;;;;;;5.13;4.72;;;26.30;67.20;;;;;;4997377;28;20620;-63
2023/09/07 12:33:37;;;;;;;5.90;5.30;;;26.40;67.00;;;;;;4995441;28;20065;-62
2023/09/07 12:36:03;;;;;;;5.30;4.90;;;26.40;66.40;;;;;;4997831;28;20513;-64
2023/09/07 12:38:29;;;;;;;5.00;4.50;;;26.40;66.40;;;;;;4997288;28;20121;-64
2023/09/07 12:40:55;;;;;;;6.55;5.57;;;26.40;66.80;;;;;;4995539;28;20158;-64
2023/09/07 12:43:20;;;;;;;5.78;4.82;;;26.50;66.60;;;;;;4995328;28;20544;-62